sensor_id;sensor_type;location;lat;lon;timestamp;temperature;humidity
47168;DHT22;32931;47.778;17.806;2022-08-19T00:01:32;28.00;71.40
47168;DHT22;32931;47.778;17.806;2022-08-19T00:04:03;28.00;72.00
47168;DHT22;32931;47.778;17.806;2022-08-19T00:06:31;27.90;71.90
47168;DHT22;32931;47.778;17.806;2022-08-19T00:08:57;27.90;72.00
47168;DHT22;32931;47.778;17.806;2022-08-19T00:11:24;27.80;72.10
47168;DHT22;32931;47.778;17.806;2022-08-19T00:13:51;27.70;72.30
47168;DHT22;32931;47.778;17.806;2022-08-19T00:16:17;27.70;72.60
47168;DHT22;32931;47.778;17.806;2022-08-19T00:18:47;27.60;72.50
47168;DHT22;32931;47.778;17.806;2022-08-19T00:21:14;27.50;72.60
47168;DHT22;32931;47.778;17.806;2022-08-19T00:23:41;27.40;72.30
47168;DHT22;32931;47.778;17.806;2022-08-19T00:26:09;27.30;72.10
47168;DHT22;32931;47.778;17.806;2022-08-19T00:28:36;27.10;72.00
47168;DHT22;32931;47.778;17.806;2022-08-19T00:31:07;27.10;72.10
47168;DHT22;32931;47.778;17.806;2022-08-19T00:33:34;27.00;72.60
47168;DHT22;32931;47.778;17.806;2022-08-19T00:36:02;27.00;73.00
47168;DHT22;32931;47.778;17.806;2022-08-19T00:38:30;26.90;73.20
47168;DHT22;32931;47.778;17.806;2022-08-19T00:40:57;26.90;73.60
47168;DHT22;32931;47.778;17.806;2022-08-19T00:43:25;26.90;74.40
47168;DHT22;32931;47.778;17.806;2022-08-19T00:45:52;26.90;74.30
47168;DHT22;32931;47.778;17.806;2022-08-19T00:48:19;26.90;74.60
47168;DHT22;32931;47.778;17.806;2022-08-19T00:50:48;26.90;74.70
47168;DHT22;32931;47.778;17.806;2022-08-19T00:53:17;26.90;75.10
47168;DHT22;32931;47.778;17.806;2022-08-19T00:55:46;26.90;75.20
47168;DHT22;32931;47.778;17.806;2022-08-19T00:58:16;26.90;75.10
47168;DHT22;32931;47.778;17.806;2022-08-19T01:00:44;26.80;75.40
47168;DHT22;32931;47.778;17.806;2022-08-19T01:03:19;26.80;75.50
47168;DHT22;32931;47.778;17.806;2022-08-19T01:05:46;26.70;76.30
47168;DHT22;32931;47.778;17.806;2022-08-19T01:08:15;26.70;76.70
47168;DHT22;32931;47.778;17.806;2022-08-19T01:10:46;26.70;77.20
47168;DHT22;32931;47.778;17.806;2022-08-19T01:13:18;26.70;77.40
47168;DHT22;32931;47.778;17.806;2022-08-19T01:15:50;26.80;77.40
47168;DHT22;32931;47.778;17.806;2022-08-19T01:18:19;26.70;77.10
47168;DHT22;32931;47.778;17.806;2022-08-19T01:20:46;26.80;77.10
47168;DHT22;32931;47.778;17.806;2022-08-19T01:23:14;26.70;76.70
47168;DHT22;32931;47.778;17.806;2022-08-19T01:25:49;26.70;76.90
47168;DHT22;32931;47.778;17.806;2022-08-19T01:28:25;26.70;76.70
47168;DHT22;32931;47.778;17.806;2022-08-19T01:30:55;26.70;76.70
47168;DHT22;32931;47.778;17.806;2022-08-19T01:33:21;26.70;77.10
47168;DHT22;32931;47.778;17.806;2022-08-19T01:35:47;26.60;77.30
47168;DHT22;32931;47.778;17.806;2022-08-19T01:38:26;26.50;77.30
47168;DHT22;32931;47.778;17.806;2022-08-19T01:40:53;26.40;77.60
47168;DHT22;32931;47.778;17.806;2022-08-19T01:43:19;26.40;77.60
47168;DHT22;32931;47.778;17.806;2022-08-19T01:45:46;26.30;77.70
47168;DHT22;32931;47.778;17.806;2022-08-19T01:48:13;26.30;78.20
47168;DHT22;32931;47.778;17.806;2022-08-19T01:50:39;26.30;78.90
47168;DHT22;32931;47.778;17.806;2022-08-19T01:53:10;26.30;78.90
47168;DHT22;32931;47.778;17.806;2022-08-19T01:55:39;26.30;79.20
47168;DHT22;32931;47.778;17.806;2022-08-19T01:58:06;26.30;78.90
47168;DHT22;32931;47.778;17.806;2022-08-19T02:00:34;26.30;78.70
47168;DHT22;32931;47.778;17.806;2022-08-19T02:03:00;26.30;78.50
47168;DHT22;32931;47.778;17.806;2022-08-19T02:05:27;26.30;78.50
47168;DHT22;32931;47.778;17.806;2022-08-19T02:07:57;26.30;77.80
47168;DHT22;32931;47.778;17.806;2022-08-19T02:10:25;26.20;77.40
47168;DHT22;32931;47.778;17.806;2022-08-19T02:12:51;26.10;77.40
47168;DHT22;32931;47.778;17.806;2022-08-19T02:15:19;26.00;77.50
47168;DHT22;32931;47.778;17.806;2022-08-19T02:17:46;26.00;77.80
47168;DHT22;32931;47.778;17.806;2022-08-19T02:20:13;26.00;78.50
47168;DHT22;32931;47.778;17.806;2022-08-19T02:22:40;26.00;79.30
47168;DHT22;32931;47.778;17.806;2022-08-19T02:25:10;25.90;78.80
47168;DHT22;32931;47.778;17.806;2022-08-19T02:27:37;25.90;78.70
47168;DHT22;32931;47.778;17.806;2022-08-19T02:30:06;25.90;78.70
47168;DHT22;32931;47.778;17.806;2022-08-19T02:32:33;25.80;78.40
47168;DHT22;32931;47.778;17.806;2022-08-19T02:34:59;25.80;78.70
47168;DHT22;32931;47.778;17.806;2022-08-19T02:37:26;25.80;79.30
47168;DHT22;32931;47.778;17.806;2022-08-19T02:40:11;25.80;79.90
47168;DHT22;32931;47.778;17.806;2022-08-19T02:42:38;25.80;79.60
47168;DHT22;32931;47.778;17.806;2022-08-19T02:45:04;25.80;80.20
47168;DHT22;32931;47.778;17.806;2022-08-19T02:47:31;25.80;80.30
47168;DHT22;32931;47.778;17.806;2022-08-19T02:49:58;25.80;80.50
47168;DHT22;32931;47.778;17.806;2022-08-19T02:52:24;25.80;80.30
47168;DHT22;32931;47.778;17.806;2022-08-19T02:54:51;25.80;80.20
47168;DHT22;32931;47.778;17.806;2022-08-19T02:57:17;25.80;80.20
47168;DHT22;32931;47.778;17.806;2022-08-19T02:59:43;25.80;80.10
47168;DHT22;32931;47.778;17.806;2022-08-19T03:02:10;25.80;80.50
47168;DHT22;32931;47.778;17.806;2022-08-19T03:04:36;25.80;80.30
47168;DHT22;32931;47.778;17.806;2022-08-19T03:07:02;25.80;80.40
47168;DHT22;32931;47.778;17.806;2022-08-19T03:09:28;25.90;80.80
47168;DHT22;32931;47.778;17.806;2022-08-19T03:11:56;25.90;80.80
47168;DHT22;32931;47.778;17.806;2022-08-19T03:14:22;25.90;80.60
47168;DHT22;32931;47.778;17.806;2022-08-19T03:16:50;25.80;80.20
47168;DHT22;32931;47.778;17.806;2022-08-19T03:19:18;25.80;80.00
47168;DHT22;32931;47.778;17.806;2022-08-19T03:21:46;25.80;80.00
47168;DHT22;32931;47.778;17.806;2022-08-19T03:24:13;25.80;79.90
47168;DHT22;32931;47.778;17.806;2022-08-19T03:26:45;25.80;79.70
47168;DHT22;32931;47.778;17.806;2022-08-19T03:29:12;25.80;79.70
47168;DHT22;32931;47.778;17.806;2022-08-19T03:31:40;25.80;79.60
47168;DHT22;32931;47.778;17.806;2022-08-19T03:34:07;25.70;80.10
47168;DHT22;32931;47.778;17.806;2022-08-19T03:36:33;25.80;79.30
47168;DHT22;32931;47.778;17.806;2022-08-19T03:39:01;25.70;79.30
47168;DHT22;32931;47.778;17.806;2022-08-19T03:41:32;25.70;79.30
47168;DHT22;32931;47.778;17.806;2022-08-19T03:43:59;25.70;79.20
47168;DHT22;32931;47.778;17.806;2022-08-19T03:46:28;25.70;79.00
47168;DHT22;32931;47.778;17.806;2022-08-19T03:48:57;25.80;79.10
47168;DHT22;32931;47.778;17.806;2022-08-19T03:51:32;25.80;79.10
47168;DHT22;32931;47.778;17.806;2022-08-19T03:54:00;25.80;78.90
47168;DHT22;32931;47.778;17.806;2022-08-19T03:56:28;25.80;79.10
47168;DHT22;32931;47.778;17.806;2022-08-19T03:58:55;25.80;78.80
47168;DHT22;32931;47.778;17.806;2022-08-19T04:01:25;25.80;78.70
47168;DHT22;32931;47.778;17.806;2022-08-19T04:03:55;25.90;78.40
47168;DHT22;32931;47.778;17.806;2022-08-19T04:06:33;25.90;78.20
47168;DHT22;32931;47.778;17.806;2022-08-19T04:09:03;25.90;78.50
47168;DHT22;32931;47.778;17.806;2022-08-19T04:11:38;25.90;78.50
47168;DHT22;32931;47.778;17.806;2022-08-19T04:14:13;25.90;78.70
47168;DHT22;32931;47.778;17.806;2022-08-19T04:16:40;25.80;78.40
47168;DHT22;32931;47.778;17.806;2022-08-19T04:19:07;25.80;78.60
47168;DHT22;32931;47.778;17.806;2022-08-19T04:21:33;25.80;78.60
47168;DHT22;32931;47.778;17.806;2022-08-19T04:24:00;25.80;79.10
47168;DHT22;32931;47.778;17.806;2022-08-19T04:26:30;25.80;79.30
47168;DHT22;32931;47.778;17.806;2022-08-19T04:28:59;25.70;79.30
47168;DHT22;32931;47.778;17.806;2022-08-19T04:31:27;25.70;79.60
47168;DHT22;32931;47.778;17.806;2022-08-19T04:33:55;25.70;80.00
47168;DHT22;32931;47.778;17.806;2022-08-19T04:36:28;25.70;80.40
47168;DHT22;32931;47.778;17.806;2022-08-19T04:38:57;25.70;80.40
47168;DHT22;32931;47.778;17.806;2022-08-19T04:41:25;25.70;80.00
47168;DHT22;32931;47.778;17.806;2022-08-19T04:44:10;25.70;80.10
47168;DHT22;32931;47.778;17.806;2022-08-19T04:46:38;25.70;80.30
47168;DHT22;32931;47.778;17.806;2022-08-19T04:49:05;25.70;80.40
47168;DHT22;32931;47.778;17.806;2022-08-19T04:51:33;25.80;80.70
47168;DHT22;32931;47.778;17.806;2022-08-19T04:54:01;25.80;80.70
47168;DHT22;32931;47.778;17.806;2022-08-19T04:56:28;25.80;81.00
47168;DHT22;32931;47.778;17.806;2022-08-19T04:58:55;25.90;81.30
47168;DHT22;32931;47.778;17.806;2022-08-19T05:01:25;25.90;81.20
47168;DHT22;32931;47.778;17.806;2022-08-19T05:03:52;26.00;81.20
47168;DHT22;32931;47.778;17.806;2022-08-19T05:06:20;26.00;80.80
47168;DHT22;32931;47.778;17.806;2022-08-19T05:08:47;26.10;80.80
47168;DHT22;32931;47.778;17.806;2022-08-19T05:11:17;26.10;81.10
47168;DHT22;32931;47.778;17.806;2022-08-19T05:13:44;26.20;81.40
47168;DHT22;32931;47.778;17.806;2022-08-19T05:16:12;26.20;81.10
47168;DHT22;32931;47.778;17.806;2022-08-19T05:18:39;26.30;81.00
47168;DHT22;32931;47.778;17.806;2022-08-19T05:21:25;26.30;81.20
47168;DHT22;32931;47.778;17.806;2022-08-19T05:24:10;26.40;81.60
47168;DHT22;32931;47.778;17.806;2022-08-19T05:26:38;26.40;81.70
47168;DHT22;32931;47.778;17.806;2022-08-19T05:29:04;26.50;81.80
47168;DHT22;32931;47.778;17.806;2022-08-19T05:31:31;26.50;81.40
47168;DHT22;32931;47.778;17.806;2022-08-19T05:33:58;26.60;81.10
47168;DHT22;32931;47.778;17.806;2022-08-19T05:36:26;26.60;81.30
47168;DHT22;32931;47.778;17.806;2022-08-19T05:38:53;26.70;81.10
47168;DHT22;32931;47.778;17.806;2022-08-19T05:41:20;26.80;81.10
47168;DHT22;32931;47.778;17.806;2022-08-19T05:43:46;26.80;80.80
47168;DHT22;32931;47.778;17.806;2022-08-19T05:46:19;26.90;80.90
47168;DHT22;32931;47.778;17.806;2022-08-19T05:48:46;27.00;80.70
47168;DHT22;32931;47.778;17.806;2022-08-19T05:51:12;27.00;80.40
47168;DHT22;32931;47.778;17.806;2022-08-19T05:53:39;27.10;80.30
47168;DHT22;32931;47.778;17.806;2022-08-19T05:56:11;27.20;80.10
47168;DHT22;32931;47.778;17.806;2022-08-19T05:58:38;27.30;80.40
47168;DHT22;32931;47.778;17.806;2022-08-19T06:01:09;27.30;79.50
47168;DHT22;32931;47.778;17.806;2022-08-19T06:03:36;27.40;79.60
47168;DHT22;32931;47.778;17.806;2022-08-19T06:06:04;27.40;79.60
47168;DHT22;32931;47.778;17.806;2022-08-19T06:08:31;27.50;79.80
47168;DHT22;32931;47.778;17.806;2022-08-19T06:11:19;27.60;79.70
47168;DHT22;32931;47.778;17.806;2022-08-19T06:13:48;27.70;79.20
47168;DHT22;32931;47.778;17.806;2022-08-19T06:16:20;27.80;79.40
47168;DHT22;32931;47.778;17.806;2022-08-19T06:18:53;27.90;79.40
47168;DHT22;32931;47.778;17.806;2022-08-19T06:21:21;27.90;79.00
47168;DHT22;32931;47.778;17.806;2022-08-19T06:23:49;28.00;79.20
47168;DHT22;32931;47.778;17.806;2022-08-19T06:26:18;28.10;78.50
47168;DHT22;32931;47.778;17.806;2022-08-19T06:28:45;28.20;78.90
47168;DHT22;32931;47.778;17.806;2022-08-19T06:31:17;28.30;78.20
47168;DHT22;32931;47.778;17.806;2022-08-19T06:33:44;28.40;77.50
47168;DHT22;32931;47.778;17.806;2022-08-19T06:36:29;28.50;77.30
47168;DHT22;32931;47.778;17.806;2022-08-19T06:39:02;28.60;76.90
47168;DHT22;32931;47.778;17.806;2022-08-19T06:41:29;28.60;77.60
47168;DHT22;32931;47.778;17.806;2022-08-19T06:43:57;28.70;76.70
47168;DHT22;32931;47.778;17.806;2022-08-19T06:46:24;28.80;76.30
47168;DHT22;32931;47.778;17.806;2022-08-19T06:48:50;28.90;76.20
47168;DHT22;32931;47.778;17.806;2022-08-19T06:51:20;28.90;76.30
47168;DHT22;32931;47.778;17.806;2022-08-19T06:53:47;29.00;75.70
47168;DHT22;32931;47.778;17.806;2022-08-19T06:56:18;29.10;75.30
47168;DHT22;32931;47.778;17.806;2022-08-19T06:58:45;29.10;75.10
47168;DHT22;32931;47.778;17.806;2022-08-19T07:01:12;29.10;74.50
47168;DHT22;32931;47.778;17.806;2022-08-19T07:03:39;29.20;74.50
47168;DHT22;32931;47.778;17.806;2022-08-19T07:06:08;29.20;74.20
47168;DHT22;32931;47.778;17.806;2022-08-19T07:08:36;29.30;74.10
47168;DHT22;32931;47.778;17.806;2022-08-19T07:11:06;29.30;74.10
47168;DHT22;32931;47.778;17.806;2022-08-19T07:13:34;29.40;74.00
47168;DHT22;32931;47.778;17.806;2022-08-19T07:16:07;29.40;74.00
47168;DHT22;32931;47.778;17.806;2022-08-19T07:18:34;29.50;75.20
47168;DHT22;32931;47.778;17.806;2022-08-19T07:21:10;29.50;74.50
47168;DHT22;32931;47.778;17.806;2022-08-19T07:23:36;29.60;74.50
47168;DHT22;32931;47.778;17.806;2022-08-19T07:26:18;29.60;73.90
47168;DHT22;32931;47.778;17.806;2022-08-19T07:28:46;29.60;74.20
47168;DHT22;32931;47.778;17.806;2022-08-19T07:31:17;29.70;74.00
47168;DHT22;32931;47.778;17.806;2022-08-19T07:33:48;29.70;73.40
47168;DHT22;32931;47.778;17.806;2022-08-19T07:36:18;29.80;73.80
47168;DHT22;32931;47.778;17.806;2022-08-19T07:38:47;29.80;73.50
47168;DHT22;32931;47.778;17.806;2022-08-19T07:41:20;29.90;72.50
47168;DHT22;32931;47.778;17.806;2022-08-19T07:43:48;29.90;73.00
47168;DHT22;32931;47.778;17.806;2022-08-19T07:46:15;30.00;73.00
47168;DHT22;32931;47.778;17.806;2022-08-19T07:48:43;30.00;72.80
47168;DHT22;32931;47.778;17.806;2022-08-19T07:51:14;30.10;73.00
47168;DHT22;32931;47.778;17.806;2022-08-19T07:53:41;30.10;72.10
47168;DHT22;32931;47.778;17.806;2022-08-19T07:56:07;30.20;72.90
47168;DHT22;32931;47.778;17.806;2022-08-19T07:58:36;30.20;72.80
47168;DHT22;32931;47.778;17.806;2022-08-19T08:01:04;30.30;72.10
47168;DHT22;32931;47.778;17.806;2022-08-19T08:03:31;30.30;71.80
47168;DHT22;32931;47.778;17.806;2022-08-19T08:06:16;30.40;71.60
47168;DHT22;32931;47.778;17.806;2022-08-19T08:09:20;30.40;71.30
47168;DHT22;32931;47.778;17.806;2022-08-19T08:11:54;30.40;70.80
47168;DHT22;32931;47.778;17.806;2022-08-19T08:14:36;30.50;70.70
47168;DHT22;32931;47.778;17.806;2022-08-19T08:17:05;30.50;70.80
47168;DHT22;32931;47.778;17.806;2022-08-19T08:19:32;30.50;70.70
47168;DHT22;32931;47.778;17.806;2022-08-19T08:22:00;30.60;70.10
47168;DHT22;32931;47.778;17.806;2022-08-19T08:24:29;30.60;70.20
47168;DHT22;32931;47.778;17.806;2022-08-19T08:26:58;30.70;70.50
47168;DHT22;32931;47.778;17.806;2022-08-19T08:29:26;30.80;70.00
47168;DHT22;32931;47.778;17.806;2022-08-19T08:31:53;30.80;69.20
47168;DHT22;32931;47.778;17.806;2022-08-19T08:34:20;30.80;69.30
47168;DHT22;32931;47.778;17.806;2022-08-19T08:36:47;30.90;69.10
47168;DHT22;32931;47.778;17.806;2022-08-19T08:39:15;30.90;69.10
47168;DHT22;32931;47.778;17.806;2022-08-19T08:42:28;31.00;69.40
47168;DHT22;32931;47.778;17.806;2022-08-19T08:45:12;31.10;70.50
47168;DHT22;32931;47.778;17.806;2022-08-19T08:47:42;31.10;71.10
47168;DHT22;32931;47.778;17.806;2022-08-19T08:50:18;31.20;69.00
47168;DHT22;32931;47.778;17.806;2022-08-19T08:52:48;31.30;69.50
47168;DHT22;32931;47.778;17.806;2022-08-19T08:55:20;31.30;68.70
47168;DHT22;32931;47.778;17.806;2022-08-19T09:00:30;31.50;68.80
47168;DHT22;32931;47.778;17.806;2022-08-19T09:02:58;31.50;70.20
47168;DHT22;32931;47.778;17.806;2022-08-19T09:05:45;31.60;68.60
47168;DHT22;32931;47.778;17.806;2022-08-19T09:11:10;31.70;69.40
47168;DHT22;32931;47.778;17.806;2022-08-19T09:14:13;31.70;69.60
47168;DHT22;32931;47.778;17.806;2022-08-19T09:16:42;31.70;68.90
47168;DHT22;32931;47.778;17.806;2022-08-19T09:19:09;31.70;69.00
47168;DHT22;32931;47.778;17.806;2022-08-19T09:21:37;31.70;68.10
47168;DHT22;32931;47.778;17.806;2022-08-19T09:24:04;31.80;69.20
47168;DHT22;32931;47.778;17.806;2022-08-19T09:26:32;32.00;68.80
47168;DHT22;32931;47.778;17.806;2022-08-19T09:28:58;32.00;68.00
47168;DHT22;32931;47.778;17.806;2022-08-19T09:31:27;32.10;67.80
47168;DHT22;32931;47.778;17.806;2022-08-19T09:33:54;32.20;67.70
47168;DHT22;32931;47.778;17.806;2022-08-19T09:36:26;32.30;67.80
47168;DHT22;32931;47.778;17.806;2022-08-19T09:38:55;32.40;67.10
47168;DHT22;32931;47.778;17.806;2022-08-19T09:41:23;32.40;66.90
47168;DHT22;32931;47.778;17.806;2022-08-19T09:43:53;32.50;67.10
47168;DHT22;32931;47.778;17.806;2022-08-19T09:46:27;32.50;67.10
47168;DHT22;32931;47.778;17.806;2022-08-19T09:48:54;32.60;66.70
47168;DHT22;32931;47.778;17.806;2022-08-19T09:51:26;32.60;68.00
47168;DHT22;32931;47.778;17.806;2022-08-19T09:53:54;32.60;68.00
47168;DHT22;32931;47.778;17.806;2022-08-19T09:56:21;32.70;67.00
47168;DHT22;32931;47.778;17.806;2022-08-19T09:58:48;32.80;67.20
47168;DHT22;32931;47.778;17.806;2022-08-19T10:01:20;32.80;66.70
47168;DHT22;32931;47.778;17.806;2022-08-19T10:03:49;32.90;67.20
47168;DHT22;32931;47.778;17.806;2022-08-19T10:06:17;32.90;66.30
47168;DHT22;32931;47.778;17.806;2022-08-19T10:08:45;33.00;65.90
47168;DHT22;32931;47.778;17.806;2022-08-19T10:11:11;33.10;65.90
47168;DHT22;32931;47.778;17.806;2022-08-19T10:13:40;33.20;65.00
47168;DHT22;32931;47.778;17.806;2022-08-19T10:16:11;33.30;65.10
47168;DHT22;32931;47.778;17.806;2022-08-19T10:18:37;33.40;64.60
47168;DHT22;32931;47.778;17.806;2022-08-19T10:21:14;33.40;64.80
47168;DHT22;32931;47.778;17.806;2022-08-19T10:23:43;33.50;65.40
47168;DHT22;32931;47.778;17.806;2022-08-19T10:26:15;33.70;64.40
47168;DHT22;32931;47.778;17.806;2022-08-19T10:28:42;33.70;64.70
47168;DHT22;32931;47.778;17.806;2022-08-19T10:31:14;33.80;64.50
47168;DHT22;32931;47.778;17.806;2022-08-19T10:33:41;33.90;63.80
47168;DHT22;32931;47.778;17.806;2022-08-19T10:36:12;33.90;62.10
47168;DHT22;32931;47.778;17.806;2022-08-19T10:38:41;33.90;62.80
47168;DHT22;32931;47.778;17.806;2022-08-19T10:41:11;33.80;63.30
47168;DHT22;32931;47.778;17.806;2022-08-19T10:43:39;33.80;63.20
47168;DHT22;32931;47.778;17.806;2022-08-19T10:46:07;33.70;62.30
47168;DHT22;32931;47.778;17.806;2022-08-19T10:48:34;33.70;62.20
47168;DHT22;32931;47.778;17.806;2022-08-19T10:51:01;33.60;62.50
47168;DHT22;32931;47.778;17.806;2022-08-19T10:53:46;33.50;63.00
47168;DHT22;32931;47.778;17.806;2022-08-19T10:56:12;33.40;62.50
47168;DHT22;32931;47.778;17.806;2022-08-19T10:58:57;33.30;62.40
47168;DHT22;32931;47.778;17.806;2022-08-19T11:01:26;33.20;62.90
47168;DHT22;32931;47.778;17.806;2022-08-19T11:03:53;33.00;64.10
47168;DHT22;32931;47.778;17.806;2022-08-19T11:06:19;33.00;65.00
47168;DHT22;32931;47.778;17.806;2022-08-19T11:08:46;32.90;65.40
47168;DHT22;32931;47.778;17.806;2022-08-19T11:11:12;32.80;65.70
47168;DHT22;32931;47.778;17.806;2022-08-19T11:13:40;32.70;66.40
47168;DHT22;32931;47.778;17.806;2022-08-19T11:16:11;32.60;67.00
47168;DHT22;32931;47.778;17.806;2022-08-19T11:18:47;32.60;66.80
47168;DHT22;32931;47.778;17.806;2022-08-19T11:23:46;32.40;67.60
47168;DHT22;32931;47.778;17.806;2022-08-19T11:26:14;32.30;67.90
47168;DHT22;32931;47.778;17.806;2022-08-19T11:28:43;32.20;67.80
47168;DHT22;32931;47.778;17.806;2022-08-19T11:31:15;32.00;68.50
47168;DHT22;32931;47.778;17.806;2022-08-19T11:33:42;31.90;68.90
47168;DHT22;32931;47.778;17.806;2022-08-19T11:36:09;31.80;69.30
47168;DHT22;32931;47.778;17.806;2022-08-19T11:38:36;31.80;69.40
47168;DHT22;32931;47.778;17.806;2022-08-19T11:41:05;31.70;70.00
47168;DHT22;32931;47.778;17.806;2022-08-19T11:43:34;31.70;70.00
47168;DHT22;32931;47.778;17.806;2022-08-19T11:46:04;31.70;69.90
47168;DHT22;32931;47.778;17.806;2022-08-19T11:48:32;31.60;70.30
47168;DHT22;32931;47.778;17.806;2022-08-19T11:50:59;31.60;70.30
47168;DHT22;32931;47.778;17.806;2022-08-19T11:53:25;31.70;71.00
47168;DHT22;32931;47.778;17.806;2022-08-19T11:55:53;31.70;70.20
47168;DHT22;32931;47.778;17.806;2022-08-19T11:58:23;31.70;70.00
47168;DHT22;32931;47.778;17.806;2022-08-19T12:00:51;31.70;70.00
47168;DHT22;32931;47.778;17.806;2022-08-19T12:03:18;31.60;69.70
47168;DHT22;32931;47.778;17.806;2022-08-19T12:05:45;31.60;69.40
47168;DHT22;32931;47.778;17.806;2022-08-19T12:08:12;31.50;69.90
47168;DHT22;32931;47.778;17.806;2022-08-19T12:10:39;31.40;69.40
47168;DHT22;32931;47.778;17.806;2022-08-19T12:13:09;31.40;69.30
47168;DHT22;32931;47.778;17.806;2022-08-19T12:15:36;31.40;69.00
47168;DHT22;32931;47.778;17.806;2022-08-19T12:18:04;31.30;68.70
47168;DHT22;32931;47.778;17.806;2022-08-19T12:20:30;31.20;68.50
47168;DHT22;32931;47.778;17.806;2022-08-19T12:22:56;31.10;68.80
47168;DHT22;32931;47.778;17.806;2022-08-19T12:25:22;31.00;68.50
47168;DHT22;32931;47.778;17.806;2022-08-19T12:27:49;31.00;68.60
47168;DHT22;32931;47.778;17.806;2022-08-19T12:30:15;31.00;68.90
47168;DHT22;32931;47.778;17.806;2022-08-19T12:32:42;31.00;68.80
47168;DHT22;32931;47.778;17.806;2022-08-19T12:35:08;31.00;68.80
47168;DHT22;32931;47.778;17.806;2022-08-19T12:37:36;30.80;68.50
47168;DHT22;32931;47.778;17.806;2022-08-19T12:40:03;30.80;68.80
47168;DHT22;32931;47.778;17.806;2022-08-19T12:42:29;30.80;72.90
47168;DHT22;32931;47.778;17.806;2022-08-19T12:44:56;30.60;81.70
47168;DHT22;32931;47.778;17.806;2022-08-19T12:58:52;30.20;83.20
47168;DHT22;32931;47.778;17.806;2022-08-19T13:01:19;28.40;92.60
47168;DHT22;32931;47.778;17.806;2022-08-19T13:03:46;28.20;92.80
47168;DHT22;32931;47.778;17.806;2022-08-19T13:06:13;28.10;92.80
47168;DHT22;32931;47.778;17.806;2022-08-19T13:08:39;28.10;91.60
47168;DHT22;32931;47.778;17.806;2022-08-19T13:11:15;28.00;91.30
47168;DHT22;32931;47.778;17.806;2022-08-19T13:13:45;27.90;90.90
47168;DHT22;32931;47.778;17.806;2022-08-19T13:16:12;27.90;90.10
47168;DHT22;32931;47.778;17.806;2022-08-19T13:18:40;27.90;90.40
47168;DHT22;32931;47.778;17.806;2022-08-19T13:21:09;27.90;89.90
47168;DHT22;32931;47.778;17.806;2022-08-19T13:23:37;28.00;89.40
47168;DHT22;32931;47.778;17.806;2022-08-19T13:26:05;28.00;88.50
47168;DHT22;32931;47.778;17.806;2022-08-19T13:28:33;28.00;87.90
47168;DHT22;32931;47.778;17.806;2022-08-19T13:31:20;28.10;87.50
47168;DHT22;32931;47.778;17.806;2022-08-19T13:34:05;28.30;86.80
47168;DHT22;32931;47.778;17.806;2022-08-19T13:36:33;28.40;85.40
47168;DHT22;32931;47.778;17.806;2022-08-19T13:38:59;28.50;84.00
47168;DHT22;32931;47.778;17.806;2022-08-19T13:41:26;28.60;84.10
47168;DHT22;32931;47.778;17.806;2022-08-19T13:43:53;28.60;82.30
47168;DHT22;32931;47.778;17.806;2022-08-19T13:46:20;28.60;82.40
47168;DHT22;32931;47.778;17.806;2022-08-19T13:48:47;28.60;80.60
47168;DHT22;32931;47.778;17.806;2022-08-19T13:51:16;28.70;80.20
47168;DHT22;32931;47.778;17.806;2022-08-19T13:53:43;28.70;81.00
47168;DHT22;32931;47.778;17.806;2022-08-19T13:56:14;28.60;79.50
47168;DHT22;32931;47.778;17.806;2022-08-19T13:58:41;28.60;78.40
47168;DHT22;32931;47.778;17.806;2022-08-19T14:01:09;28.50;78.60
47168;DHT22;32931;47.778;17.806;2022-08-19T14:03:35;28.50;78.40
47168;DHT22;32931;47.778;17.806;2022-08-19T14:06:02;28.40;81.70
47168;DHT22;32931;47.778;17.806;2022-08-19T14:08:28;28.30;81.70
47168;DHT22;32931;47.778;17.806;2022-08-19T14:10:56;28.10;82.60
47168;DHT22;32931;47.778;17.806;2022-08-19T14:13:23;28.10;84.90
47168;DHT22;32931;47.778;17.806;2022-08-19T14:15:50;28.10;88.10
47168;DHT22;32931;47.778;17.806;2022-08-19T14:18:18;28.10;90.40
47168;DHT22;32931;47.778;17.806;2022-08-19T14:55:36;27.50;94.60
47168;DHT22;32931;47.778;17.806;2022-08-19T14:58:02;27.40;95.00
47168;DHT22;32931;47.778;17.806;2022-08-19T15:00:29;27.40;95.70
47168;DHT22;32931;47.778;17.806;2022-08-19T15:02:55;27.40;95.80
47168;DHT22;32931;47.778;17.806;2022-08-19T15:05:22;27.40;96.20
47168;DHT22;32931;47.778;17.806;2022-08-19T15:07:49;27.40;96.50
47168;DHT22;32931;47.778;17.806;2022-08-19T15:10:15;27.40;95.90
47168;DHT22;32931;47.778;17.806;2022-08-19T15:12:42;27.40;95.80
47168;DHT22;32931;47.778;17.806;2022-08-19T15:15:12;27.40;95.70
47168;DHT22;32931;47.778;17.806;2022-08-19T15:17:45;27.40;95.70
47168;DHT22;32931;47.778;17.806;2022-08-19T15:20:18;27.40;96.10
47168;DHT22;32931;47.778;17.806;2022-08-19T15:22:45;27.30;95.50
47168;DHT22;32931;47.778;17.806;2022-08-19T15:25:13;27.20;95.60
47168;DHT22;32931;47.778;17.806;2022-08-19T15:27:40;27.20;95.70
47168;DHT22;32931;47.778;17.806;2022-08-19T15:30:08;27.10;95.70
47168;DHT22;32931;47.778;17.806;2022-08-19T15:32:35;27.00;95.70
47168;DHT22;32931;47.778;17.806;2022-08-19T15:35:03;27.00;95.60
47168;DHT22;32931;47.778;17.806;2022-08-19T15:37:29;27.00;95.70
47168;DHT22;32931;47.778;17.806;2022-08-19T15:39:55;26.90;95.40
47168;DHT22;32931;47.778;17.806;2022-08-19T15:42:22;26.90;94.90
47168;DHT22;32931;47.778;17.806;2022-08-19T15:44:48;26.80;94.90
47168;DHT22;32931;47.778;17.806;2022-08-19T15:47:14;26.80;95.50
47168;DHT22;32931;47.778;17.806;2022-08-19T15:49:41;26.80;95.80
47168;DHT22;32931;47.778;17.806;2022-08-19T15:52:07;26.80;95.20
47168;DHT22;32931;47.778;17.806;2022-08-19T15:54:33;26.70;94.70
47168;DHT22;32931;47.778;17.806;2022-08-19T15:56:59;26.70;94.70
47168;DHT22;32931;47.778;17.806;2022-08-19T15:59:44;26.70;94.20
47168;DHT22;32931;47.778;17.806;2022-08-19T16:02:40;26.70;93.90
47168;DHT22;32931;47.778;17.806;2022-08-19T16:05:25;26.70;93.50
47168;DHT22;32931;47.778;17.806;2022-08-19T16:08:11;26.70;93.30
47168;DHT22;32931;47.778;17.806;2022-08-19T16:10:38;26.70;93.00
47168;DHT22;32931;47.778;17.806;2022-08-19T16:13:05;26.70;92.70
47168;DHT22;32931;47.778;17.806;2022-08-19T16:15:32;26.70;92.60
47168;DHT22;32931;47.778;17.806;2022-08-19T16:17:59;26.70;93.00
47168;DHT22;32931;47.778;17.806;2022-08-19T16:20:30;26.70;93.60
47168;DHT22;32931;47.778;17.806;2022-08-19T16:22:57;26.70;94.60